Time;durP1;ratioP1;P1;durP2;ratioP2;P2;SDS_P1;SDS_P2;PMS_P1;PMS_P2;Temp;Humidity;BMP_temperature;BMP_pressure;BME280_temperature;BME280_humidity;BME280_pressure;Samples;Min_cycle;Max_cycle;Signal;HPM_P1;HPM_P2
2022/09/12 00:02:00;;;;;;;18.55;10.53;;;;;;;11.24;80.35;100070.27;1774679;80;20895;-92
2022/09/12 00:04:27;;;;;;;20.00;10.35;;;;;;;11.25;80.48;100067.55;1810622;79;20885;-93
2022/09/12 00:06:55;;;;;;;19.87;10.48;;;;;;;11.27;80.38;100071.36;1811243;79;20906;-92
2022/09/12 00:09:22;;;;;;;15.68;10.88;;;;;;;11.28;80.16;100072.56;1807949;77;20919;-91
2022/09/12 00:11:48;;;;;;;21.95;11.25;;;;;;;11.30;79.89;100069.36;1808673;79;20891;-92
2022/09/12 00:14:16;;;;;;;17.35;10.63;;;;;;;11.32;79.72;100073.20;1807887;79;20930;-91
2022/09/12 00:16:45;;;;;;;14.35;9.68;;;;;;;11.32;79.75;100067.47;1807078;79;20950;-93
2022/09/12 00:19:11;;;;;;;17.30;10.45;;;;;;;11.33;79.78;100068.30;1806194;79;21206;-91
2022/09/12 00:21:39;;;;;;;21.70;10.35;;;;;;;11.32;79.72;100069.27;1809406;79;20922;-91
2022/09/12 00:24:06;;;;;;;14.05;9.43;;;;;;;11.32;79.87;100070.57;1779461;79;20958;-90
2022/09/12 00:26:33;;;;;;;18.23;10.35;;;;;;;11.32;80.09;100072.72;1808729;79;20930;-92
2022/09/12 00:28:59;;;;;;;17.23;10.70;;;;;;;11.35;80.12;100075.59;1806839;76;20887;-91
2022/09/12 00:31:26;;;;;;;14.80;9.95;;;;;;;11.37;80.11;100072.38;1808036;76;22672;-92
2022/09/12 00:33:55;;;;;;;16.95;9.60;;;;;;;11.39;80.13;100073.94;1807984;78;20973;-93
2022/09/12 00:36:23;;;;;;;15.45;10.10;;;;;;;11.40;80.01;100066.90;1811292;76;20978;-93
2022/09/12 00:38:51;;;;;;;13.78;9.90;;;;;;;11.39;79.98;100070.48;1807499;76;20900;-91
2022/09/12 00:41:33;;;;;;;19.30;9.33;;;;;;;11.40;80.07;100068.21;1805621;79;20891;-94
2022/09/12 00:44:13;;;;;;;16.50;10.08;;;;;;;11.42;80.01;100066.31;1805658;79;21280;-92
2022/09/12 00:47:06;;;;;;;16.25;9.55;;;;;;;11.43;80.11;100065.84;1808615;79;20922;-92
2022/09/12 00:49:44;;;;;;;11.45;9.50;;;;;;;11.43;80.12;100065.38;1772020;79;20942;-92
2022/09/12 00:52:25;;;;;;;15.53;9.58;;;;;;;11.44;80.15;100055.71;1808874;79;20871;-93
2022/09/12 00:55:13;;;;;;;13.80;9.53;;;;;;;11.44;80.15;100060.97;1772440;81;20950;-92
2022/09/12 00:57:57;;;;;;;10.90;9.05;;;;;;;11.46;80.40;100061.21;1809137;76;21153;-92
2022/09/12 01:00:25;;;;;;;17.80;9.35;;;;;;;11.50;80.45;100065.78;1808834;79;20958;-93
2022/09/12 01:03:08;;;;;;;14.40;9.20;;;;;;;11.53;80.49;100067.69;1772111;81;21384;-94
2022/09/12 01:05:38;;;;;;;11.88;8.25;;;;;;;11.57;80.48;100069.14;1772133;81;20938;-92
2022/09/12 01:08:05;;;;;;;16.48;8.28;;;;;;;11.58;80.43;100066.89;1741206;81;20943;-92
2022/09/12 01:10:34;;;;;;;10.03;8.28;;;;;;;11.60;80.44;100066.77;1772185;81;21199;-93
2022/09/12 01:13:04;;;;;;;14.53;10.20;;;;;;;11.62;80.39;100054.36;1808615;79;21029;-92
2022/09/12 01:15:31;;;;;;;15.45;9.53;;;;;;;11.64;80.34;100052.45;1807568;76;20931;-92
2022/09/12 01:18:28;;;;;;;16.20;8.90;;;;;;;11.67;80.28;100056.64;1806909;79;20934;-92
2022/09/12 01:21:07;;;;;;;14.63;9.00;;;;;;;11.70;80.24;100057.75;1805727;79;20966;-92
2022/09/12 01:23:43;;;;;;;15.30;8.73;;;;;;;11.73;80.30;100053.57;1808669;79;21229;-93
2022/09/12 01:26:22;;;;;;;11.18;8.68;;;;;;;11.74;80.25;100049.53;1745433;81;20990;-92
2022/09/12 01:29:11;;;;;;;14.35;9.48;;;;;;;11.78;80.21;100055.38;1808756;79;20906;-93
2022/09/12 01:32:11;;;;;;;13.22;9.65;;;;;;;11.79;80.10;100053.13;1808642;79;20930;-93
2022/09/12 01:35:15;;;;;;;19.85;8.93;;;;;;;11.81;79.97;100055.17;1772264;80;20891;-93
2022/09/12 01:38:10;;;;;;;15.23;9.18;;;;;;;11.82;79.71;100062.91;1808942;79;21943;-92
2022/09/12 01:41:04;;;;;;;18.23;8.65;;;;;;;11.87;79.68;100063.05;1808742;79;20911;-92
2022/09/12 01:44:01;;;;;;;20.68;7.85;;;;;;;11.89;79.61;100051.98;1808536;79;21404;-93
2022/09/12 01:46:48;;;;;;;16.60;8.83;;;;;;;11.90;79.59;100056.30;1739058;80;20912;-94
2022/09/12 01:49:20;;;;;;;11.83;8.13;;;;;;;11.93;79.61;100047.70;1747249;76;20961;-92
2022/09/12 01:52:01;;;;;;;14.58;9.05;;;;;;;11.99;79.82;100049.05;1810992;78;21184;-92
2022/09/12 01:54:42;;;;;;;18.55;8.78;;;;;;;12.05;79.89;100048.59;1774357;81;20887;-90
2022/09/12 01:57:14;;;;;;;17.35;8.83;;;;;;;12.09;79.81;100042.12;1809625;79;20886;-91
2022/09/12 01:59:46;;;;;;;15.93;8.33;;;;;;;12.13;79.93;100039.63;1807384;76;20946;-91
2022/09/12 02:02:36;;;;;;;17.27;8.40;;;;;;;12.18;80.00;100039.27;1772482;81;20943;-91
2022/09/12 02:05:26;;;;;;;10.90;8.15;;;;;;;12.22;79.91;100035.47;1809017;79;21134;-92
2022/09/12 02:08:09;;;;;;;17.60;9.65;;;;;;;12.26;79.78;100034.77;1808381;79;20931;-91
2022/09/12 02:10:53;;;;;;;16.42;8.88;;;;;;;12.27;79.70;100033.31;1772120;81;20943;-91
2022/09/12 02:13:42;;;;;;;16.75;8.85;;;;;;;12.28;79.74;100023.17;1758687;81;20994;-92
2022/09/12 02:16:27;;;;;;;15.60;8.78;;;;;;;12.30;79.81;100032.27;1776491;80;21344;-91
2022/09/12 02:18:58;;;;;;;20.85;9.18;;;;;;;12.32;79.95;100024.62;1775840;80;21110;-92
2022/09/12 02:21:25;;;;;;;21.07;9.38;;;;;;;12.37;79.85;100024.26;1776404;80;20982;-90
2022/09/12 02:23:56;;;;;;;14.50;8.85;;;;;;;12.39;79.82;100023.66;1776618;80;20923;-92
2022/09/12 02:26:34;;;;;;;11.28;7.78;;;;;;;12.42;79.87;100021.62;1776425;80;21041;-92
2022/09/12 02:29:02;;;;;;;12.68;8.40;;;;;;;12.47;80.02;100026.52;1749474;80;21519;-93
2022/09/12 02:31:46;;;;;;;12.53;7.65;;;;;;;12.52;80.00;100031.45;1776594;80;21812;-94
2022/09/12 02:34:33;;;;;;;16.57;8.30;;;;;;;12.54;79.94;100021.62;1777623;80;20969;-93
2022/09/12 02:37:26;;;;;;;15.53;9.18;;;;;;;12.56;80.00;100017.94;1777962;76;20852;-90
2022/09/12 02:39:54;;;;;;;18.73;8.83;;;;;;;12.60;80.10;100015.89;1777742;78;20938;-92
2022/09/12 02:42:21;;;;;;;14.05;9.30;;;;;;;12.63;80.05;100012.55;1778878;76;20978;-93
2022/09/12 02:44:48;;;;;;;15.45;8.55;;;;;;;12.67;80.10;100012.30;1779198;76;21093;-93
2022/09/12 02:47:29;;;;;;;18.60;8.43;;;;;;;12.70;80.11;100012.08;1776473;76;20931;-93
2022/09/12 02:49:56;;;;;;;20.40;10.28;;;;;;;12.71;80.14;100013.25;1773535;79;20953;-91
2022/09/12 02:52:22;;;;;;;12.93;8.28;;;;;;;12.73;79.96;100015.28;1777083;80;20994;-93
2022/09/12 02:54:49;;;;;;;9.38;7.90;;;;;;;12.76;79.72;100016.37;1748509;78;20891;-93
2022/09/12 02:57:19;;;;;;;21.23;11.18;;;;;;;12.78;79.67;100011.83;1776491;80;21161;-92
2022/09/12 02:59:45;;;;;;;13.15;9.30;;;;;;;12.79;79.58;100008.72;1776328;80;20942;-92
2022/09/12 03:02:29;;;;;;;18.70;9.20;;;;;;;12.82;79.52;100011.09;1776350;80;21502;-92
2022/09/12 03:05:20;;;;;;;14.43;8.30;;;;;;;12.85;79.61;100012.19;1776600;80;20978;-91
2022/09/12 03:07:59;;;;;;;13.95;8.83;;;;;;;12.89;79.59;100010.13;1778520;76;20907;-93
2022/09/12 03:11:10;;;;;;;13.08;7.97;;;;;;;12.88;79.72;100015.05;1779098;78;21289;-93
2022/09/12 03:13:51;;;;;;;13.28;7.75;;;;;;;12.88;79.77;100013.24;1783778;80;20918;-92
2022/09/12 03:17:01;;;;;;;14.93;8.93;;;;;;;12.88;79.69;100012.41;1761795;80;21483;-93
2022/09/12 03:20:04;;;;;;;12.65;8.03;;;;;;;12.88;79.70;100018.51;1744883;82;20879;-91
2022/09/12 03:22:42;;;;;;;11.18;7.40;;;;;;;12.88;79.76;100024.26;1791463;78;20923;-93
2022/09/12 03:25:35;;;;;;;13.75;8.55;;;;;;;12.88;79.86;100021.62;1790903;80;21086;-92
2022/09/12 03:28:15;;;;;;;15.78;8.08;;;;;;;12.86;79.80;100016.47;1790465;80;20998;-92
2022/09/12 03:30:53;;;;;;;12.98;8.45;;;;;;;12.82;79.96;100015.03;1764432;80;20920;-93
2022/09/12 03:33:22;;;;;;;11.45;8.70;;;;;;;12.80;80.21;100015.64;1790542;80;20899;-93
2022/09/12 03:35:48;;;;;;;17.20;8.23;;;;;;;12.83;80.47;100018.88;1791295;79;20923;-92
2022/09/12 03:38:15;;;;;;;18.85;8.43;;;;;;;12.85;80.56;100022.22;1790701;80;21210;-92
2022/09/12 03:40:41;;;;;;;13.53;8.55;;;;;;;12.89;80.50;100025.91;1792437;78;21030;-92
2022/09/12 03:43:08;;;;;;;13.10;8.23;;;;;;;12.92;80.42;100025.20;1792952;78;20970;-92
2022/09/12 03:45:35;;;;;;;16.32;9.25;;;;;;;12.94;80.39;100025.92;1792811;78;20947;-92
2022/09/12 03:48:05;;;;;;;12.75;9.05;;;;;;;12.98;80.45;100027.81;1793091;78;20841;-92
2022/09/12 03:50:32;;;;;;;14.25;7.78;;;;;;;13.00;80.51;100026.73;1791127;80;21224;-93
2022/09/12 03:52:59;;;;;;;12.03;9.48;;;;;;;13.03;80.53;100018.61;1790384;80;20841;-92
2022/09/12 03:55:26;;;;;;;14.80;8.33;;;;;;;13.06;80.53;100022.78;1790445;80;20900;-92
2022/09/12 03:57:53;;;;;;;10.68;8.28;;;;;;;13.09;80.61;100020.37;1790579;80;21467;-92
2022/09/12 04:00:20;;;;;;;16.73;8.70;;;;;;;13.12;80.64;100013.09;1790819;80;20967;-93
2022/09/12 04:02:47;;;;;;;15.32;8.85;;;;;;;13.14;80.72;100020.38;1790757;80;21857;-94
2022/09/12 04:05:14;;;;;;;9.78;7.58;;;;;;;13.17;80.55;100021.44;1792619;78;20939;-92
2022/09/12 04:07:41;;;;;;;17.75;8.50;;;;;;;13.20;80.86;100026.94;1791640;78;20832;-91
2022/09/12 04:10:08;;;;;;;13.90;8.08;;;;;;;13.21;80.83;100037.35;1791152;80;20927;-95
2022/09/12 04:12:35;;;;;;;13.70;8.73;;;;;;;13.24;80.75;100036.27;1791451;80;20943;-91
2022/09/12 04:15:02;;;;;;;13.98;9.65;;;;;;;13.29;80.54;100038.55;1791623;80;21125;-93
2022/09/12 04:17:30;;;;;;;14.50;7.53;;;;;;;13.28;80.42;100032.46;1792869;78;21333;-92
2022/09/12 04:19:56;;;;;;;12.53;8.25;;;;;;;13.38;80.21;100039.95;1793059;78;21020;-93
2022/09/12 04:22:23;;;;;;;12.65;8.15;;;;;;;13.43;79.98;100044.39;1793026;80;20844;-92
2022/09/12 04:24:49;;;;;;;10.78;7.50;;;;;;;13.50;79.63;100042.58;1790611;80;20883;-92
2022/09/12 04:27:16;;;;;;;13.60;9.20;;;;;;;13.55;79.37;100039.91;1792213;78;21229;-91
2022/09/12 04:29:42;;;;;;;19.27;9.10;;;;;;;13.60;79.04;100042.99;1792531;78;20907;-92
2022/09/12 04:32:09;;;;;;;13.85;7.75;;;;;;;13.64;78.61;100040.47;1790620;80;21372;-94
2022/09/12 04:34:36;;;;;;;14.90;7.83;;;;;;;13.71;78.47;100038.16;1790309;80;20903;-94
2022/09/12 04:37:03;;;;;;;11.65;7.03;;;;;;;13.80;78.46;100041.84;1790105;80;21006;-92
2022/09/12 04:39:30;;;;;;;24.90;19.85;;;;;;;13.92;78.27;100030.30;1790060;80;21138;-92
2022/09/12 04:41:56;;;;;;;16.73;9.45;;;;;;;14.02;78.12;100023.27;1789926;80;20918;-92
2022/09/12 04:44:24;;;;;;;13.43;7.37;;;;;;;14.14;77.81;100029.33;1789938;80;21435;-93
2022/09/12 04:46:51;;;;;;;16.87;8.90;;;;;;;14.23;77.61;100029.03;1791700;80;20856;-93
2022/09/12 04:49:18;;;;;;;13.53;7.05;;;;;;;14.34;77.49;100032.91;1792142;78;20871;-93
2022/09/12 04:51:45;;;;;;;15.68;8.20;;;;;;;14.48;77.12;100031.23;1790002;80;21114;-92
2022/09/12 04:54:16;;;;;;;14.05;7.65;;;;;;;14.61;76.92;100031.55;1789949;80;21010;-91
2022/09/12 04:56:45;;;;;;;12.45;7.80;;;;;;;14.95;76.24;100031.23;1789927;80;20888;-92
2022/09/12 04:59:14;;;;;;;11.55;7.85;;;;;;;14.95;76.24;100031.23;1790188;80;20927;-93
2022/09/12 05:01:41;;;;;;;16.30;8.73;;;;;;;15.19;75.54;100028.23;1790448;80;20919;-92
2022/09/12 05:04:09;;;;;;;17.12;8.95;;;;;;;15.45;74.69;100032.03;1790482;80;21120;-93
2022/09/12 05:06:37;;;;;;;14.13;9.15;;;;;;;15.64;73.69;100037.80;1790456;80;20922;-93
2022/09/12 05:09:10;;;;;;;20.48;10.13;;;;;;;15.74;72.92;100036.03;1790812;80;21108;-92
2022/09/12 05:11:38;;;;;;;16.95;9.83;;;;;;;15.83;72.49;100046.25;1790547;80;20983;-92
2022/09/12 05:14:10;;;;;;;18.80;10.03;;;;;;;15.90;71.76;100039.91;1799166;79;21373;-92
2022/09/12 05:16:36;;;;;;;20.08;11.43;;;;;;;15.90;71.76;100039.91;1801852;79;21436;-90
2022/09/12 05:19:03;;;;;;;17.25;11.68;;;;;;;15.89;72.00;100034.27;1801788;79;20939;-92
2022/09/12 05:21:30;;;;;;;23.42;12.20;;;;;;;15.89;71.89;100039.06;1802346;79;20918;-93
2022/09/12 05:23:58;;;;;;;19.07;10.95;;;;;;;15.91;71.73;100033.64;1802382;79;20895;-93
2022/09/12 05:26:25;;;;;;;18.02;11.35;;;;;;;15.93;71.81;100033.02;1802134;79;20895;-94
2022/09/12 05:28:52;;;;;;;18.05;11.20;;;;;;;15.97;71.69;100033.58;1802590;79;21217;-92
2022/09/12 05:31:26;;;;;;;18.17;12.60;;;;;;;15.96;71.54;100032.72;1804252;75;20873;-92
2022/09/12 05:33:54;;;;;;;20.10;14.47;;;;;;;16.03;71.30;100040.45;1803190;79;21013;-92
2022/09/12 05:36:25;;;;;;;15.00;10.70;;;;;;;16.06;71.12;100039.34;1803184;79;20942;-92
2022/09/12 05:38:53;;;;;;;14.87;10.75;;;;;;;16.14;71.49;100036.33;1802841;79;21009;-93
2022/09/12 05:41:28;;;;;;;23.20;12.37;;;;;;;16.14;71.49;100036.33;1803161;79;21357;-92
2022/09/12 05:43:57;;;;;;;22.22;11.75;;;;;;;16.21;71.38;100028.66;1776486;79;20950;-92
2022/09/12 05:46:27;;;;;;;22.02;12.18;;;;;;;16.29;71.37;100027.92;1802908;79;20931;-94
2022/09/12 05:48:54;;;;;;;19.92;11.20;;;;;;;16.35;71.35;100023.39;1804422;78;20954;-91
2022/09/12 05:51:26;;;;;;;16.15;12.20;;;;;;;16.41;71.29;100022.82;1804284;78;20928;-93
2022/09/12 05:53:57;;;;;;;26.60;12.10;;;;;;;16.47;71.29;100016.92;1803378;79;21400;-94
2022/09/12 05:56:30;;;;;;;19.48;11.75;;;;;;;16.53;71.28;100021.64;1803097;79;20935;-93
2022/09/12 05:58:59;;;;;;;18.02;12.75;;;;;;;16.62;71.10;100027.05;1803023;79;20883;-94
2022/09/12 06:01:30;;;;;;;20.85;11.75;;;;;;;16.73;70.79;100033.48;1802554;79;20902;-95
2022/09/12 06:04:00;;;;;;;20.00;12.68;;;;;;;16.84;70.66;100033.82;1803190;79;20883;-94
2022/09/12 06:06:31;;;;;;;26.50;12.07;;;;;;;16.93;70.37;100034.26;1803516;79;21783;-93
2022/09/12 06:09:00;;;;;;;18.75;11.40;;;;;;;16.99;70.16;100039.80;1802970;79;20922;-93
2022/09/12 06:11:32;;;;;;;17.85;12.05;;;;;;;17.03;70.10;100033.73;1804064;78;20919;-93
2022/09/12 06:14:00;;;;;;;14.75;10.75;;;;;;;17.07;70.10;100024.47;1796808;78;21365;-92
2022/09/12 06:16:32;;;;;;;16.62;10.10;;;;;;;17.11;70.05;100021.88;1790488;80;20883;-92
2022/09/12 06:19:01;;;;;;;17.65;11.90;;;;;;;17.15;70.10;100023.25;1790750;80;21157;-92
2022/09/12 06:21:34;;;;;;;18.23;10.40;;;;;;;17.22;69.99;100024.81;1790764;80;21340;-92
2022/09/12 06:24:01;;;;;;;20.68;10.60;;;;;;;17.27;69.61;100027.83;1791248;80;20959;-92
2022/09/12 06:26:28;;;;;;;15.55;9.88;;;;;;;17.33;68.90;100025.91;1791741;80;20900;-91
2022/09/12 06:29:07;;;;;;;15.90;11.05;;;;;;;17.36;68.64;100024.31;1791654;80;20955;-90
2022/09/12 06:31:49;;;;;;;13.95;9.30;;;;;;;17.38;68.16;100032.91;1787774;80;21085;-92
2022/09/12 06:34:21;;;;;;;14.90;9.13;;;;;;;17.44;67.80;100038.62;1792112;79;20938;-90
2022/09/12 06:36:52;;;;;;;15.53;8.98;;;;;;;17.47;67.74;100029.85;1792897;78;20923;-89
2022/09/12 06:39:21;;;;;;;16.17;9.68;;;;;;;17.50;67.66;100033.55;1778229;75;20950;-89
2022/09/12 06:41:54;;;;;;;14.33;9.40;;;;;;;17.47;67.51;100037.81;1748726;77;20947;-91
2022/09/12 06:44:26;;;;;;;19.98;8.65;;;;;;;17.47;67.67;100046.26;1790981;79;21025;-91
2022/09/12 06:46:55;;;;;;;12.35;8.73;;;;;;;17.49;67.71;100054.90;1792310;79;20949;-91
2022/09/12 06:55:56;;;;;;;15.60;9.73;;;;;;;17.50;67.91;100047.30;1756828;78;22801;31
2022/09/12 06:58:27;;;;;;;18.60;8.55;;;;;;;17.52;67.59;100042.19;1716466;80;21502;-89
2022/09/12 07:01:21;;;;;;;11.80;7.83;;;;;;;17.59;67.35;100041.91;1765943;81;20953;-89
2022/09/12 07:03:53;;;;;;;13.37;10.20;;;;;;;17.66;67.47;100041.31;1747487;82;21432;-91
2022/09/12 07:06:23;;;;;;;13.10;9.75;;;;;;;17.76;67.54;100046.02;1743319;82;20907;-90
2022/09/12 07:08:51;;;;;;;17.57;9.73;;;;;;;17.82;67.14;100041.47;1747949;81;20876;-90
2022/09/12 07:11:20;;;;;;;16.30;9.35;;;;;;;17.87;66.78;100033.05;1771059;78;21196;-90
2022/09/12 07:13:51;;;;;;;13.22;8.93;;;;;;;17.92;66.73;100036.07;1772670;80;21385;-89
2022/09/12 07:16:23;;;;;;;16.40;11.35;;;;;;;17.94;66.69;100036.28;1744263;81;20926;-90
2022/09/12 07:18:58;;;;;;;16.20;8.78;;;;;;;17.95;66.67;100036.61;1796709;80;20919;-90
2022/09/12 07:21:29;;;;;;;13.98;9.43;;;;;;;17.96;66.39;100034.31;1741700;82;20959;-88
2022/09/12 07:23:59;;;;;;;15.43;8.98;;;;;;;17.96;66.10;100033.45;1795937;80;21243;-90
2022/09/12 07:26:28;;;;;;;16.67;8.98;;;;;;;17.95;66.09;100037.11;1743723;81;20955;-91
2022/09/12 07:28:57;;;;;;;13.20;8.53;;;;;;;17.91;66.52;100035.74;1796059;80;20852;-89
2022/09/12 07:31:27;;;;;;;15.48;8.58;;;;;;;17.87;66.79;100040.52;1743985;81;20948;-91
2022/09/12 07:33:55;;;;;;;10.58;8.88;;;;;;;17.84;67.20;100040.83;1796010;80;20919;-91
2022/09/12 07:36:24;;;;;;;14.85;9.35;;;;;;;17.83;67.46;100034.34;1743304;81;21146;-86
2022/09/12 07:38:56;;;;;;;10.28;7.72;;;;;;;17.84;67.95;100027.56;1797142;78;20962;-89
2022/09/12 07:41:27;;;;;;;17.87;8.48;;;;;;;17.89;67.79;100023.13;1743820;81;20931;-90
2022/09/12 07:43:58;;;;;;;14.30;10.40;;;;;;;18.03;67.30;100019.93;1796862;80;20895;-87
2022/09/12 07:46:26;;;;;;;12.70;8.73;;;;;;;18.22;67.05;100013.57;1744134;82;20863;-90
2022/09/12 07:48:55;;;;;;;13.85;9.18;;;;;;;18.46;66.39;100021.35;1796079;80;21918;-89
2022/09/12 07:51:23;;;;;;;20.70;9.75;;;;;;;18.62;65.36;100017.44;1717945;82;21026;-89
2022/09/12 07:53:52;;;;;;;13.03;9.50;;;;;;;18.72;64.76;100023.94;1796378;80;20903;-87
2022/09/12 07:56:20;;;;;;;17.15;10.18;;;;;;;18.78;64.30;100023.34;1744496;81;20974;-87
2022/09/12 07:58:47;;;;;;;19.60;10.48;;;;;;;18.80;63.73;100019.53;1795677;80;20915;-89
2022/09/12 08:01:17;;;;;;;21.70;9.88;;;;;;;18.80;63.61;100031.98;1719364;82;21137;-89
2022/09/12 08:03:47;;;;;;;15.90;9.28;;;;;;;18.78;63.58;100019.36;1796353;80;21633;-88
2022/09/12 08:06:20;;;;;;;22.90;15.83;;;;;;;18.77;63.85;100016.34;1744009;82;20931;-88
2022/09/12 08:08:50;;;;;;;27.07;12.18;;;;;;;18.77;64.54;100020.34;1796155;80;21002;-87
2022/09/12 08:11:22;;;;;;;16.02;12.03;;;;;;;18.79;64.40;100021.87;1725594;82;20872;-90
2022/09/12 08:13:50;;;;;;;24.85;12.33;;;;;;;18.83;64.19;100023.69;1736855;82;21156;-90
2022/09/12 08:16:20;;;;;;;16.02;10.08;;;;;;;18.88;64.30;100029.88;1737060;82;21113;-90
2022/09/12 08:18:49;;;;;;;15.28;10.00;;;;;;;18.89;64.83;100029.70;1737280;82;21503;-90
2022/09/12 08:21:25;;;;;;;18.02;10.55;;;;;;;18.89;64.93;100027.04;1730262;82;20857;-89
2022/09/12 08:23:59;;;;;;;14.65;10.65;;;;;;;18.89;65.47;100022.23;1750291;82;20884;-89
2022/09/12 08:26:26;;;;;;;27.93;13.58;;;;;;;18.89;65.70;100023.05;1751106;81;21389;-90
2022/09/12 08:28:53;;;;;;;23.12;11.03;;;;;;;18.91;64.94;100017.59;1751060;82;20936;-90
2022/09/12 08:31:23;;;;;;;14.15;8.90;;;;;;;18.95;64.92;100008.30;1751824;78;21129;-88
2022/09/12 08:33:50;;;;;;;14.78;6.83;;;;;;;19.01;63.72;100001.02;1751414;79;20940;-90
2022/09/12 08:36:23;;;;;;;12.50;7.08;;;;;;;19.04;63.10;99999.36;1751302;81;21075;-91
2022/09/12 08:38:56;;;;;;;10.25;6.67;;;;;;;19.10;62.82;99993.87;1750741;82;21119;-90
2022/09/12 08:41:42;;;;;;;15.70;6.67;;;;;;;19.17;62.62;99984.28;1751162;81;20916;-88
2022/09/12 08:44:27;;;;;;;14.45;6.95;;;;;;;19.26;62.67;99989.94;1750244;82;20979;-91
2022/09/12 08:47:27;;;;;;;12.43;6.40;;;;;;;19.38;62.09;99993.92;1750469;81;20939;-92
2022/09/12 08:50:13;;;;;;;17.65;8.08;;;;;;;19.54;62.02;99993.61;1750385;82;20912;-89
2022/09/12 08:52:50;;;;;;;14.43;6.10;;;;;;;19.72;61.50;99990.81;1750606;81;21067;-89
2022/09/12 08:55:30;;;;;;;12.37;6.10;;;;;;;19.87;60.58;99985.97;1750399;81;20920;-89
2022/09/12 08:58:00;;;;;;;8.18;5.42;;;;;;;19.99;59.72;99975.83;1750635;82;20992;-88
2022/09/12 09:00:36;;;;;;;10.80;5.17;;;;;;;20.11;59.37;99974.14;1748824;82;20965;-88
2022/09/12 09:03:25;;;;;;;12.58;7.95;;;;;;;20.19;59.06;99968.81;1751519;81;20924;-90
2022/09/12 09:06:19;;;;;;;8.80;6.20;;;;;;;20.31;59.10;99962.10;1724866;82;21370;-90
2022/09/12 09:08:57;;;;;;;10.50;6.25;;;;;;;20.61;59.16;99961.01;1750313;81;20872;-90
2022/09/12 09:11:57;;;;;;;8.33;5.70;;;;;;;20.99;58.35;99965.17;1750874;81;21023;-89
2022/09/12 09:14:54;;;;;;;16.25;9.05;;;;;;;21.32;57.31;99957.75;1751083;82;20889;-90
2022/09/12 09:17:33;;;;;;;12.33;7.08;;;;;;;21.72;56.50;99965.13;1751420;82;20936;-89
2022/09/12 09:20:29;;;;;;;13.00;7.87;;;;;;;22.03;55.45;99961.02;1750769;82;21243;-91
2022/09/12 09:23:35;;;;;;;9.75;7.10;;;;;;;22.26;54.70;99961.47;1751652;82;20955;-91
2022/09/12 09:26:21;;;;;;;16.07;7.28;;;;;;;22.58;54.13;99950.05;1751500;82;21491;-90
2022/09/12 09:28:52;;;;;;;12.53;7.05;;;;;;;23.00;53.46;99946.66;1751527;82;20940;-88
2022/09/12 09:31:22;;;;;;;22.00;10.65;;;;;;;23.28;52.75;99939.23;1751739;82;20869;-88
2022/09/12 09:33:52;;;;;;;25.40;10.55;;;;;;;23.46;51.77;99942.79;1751658;82;21014;-89
2022/09/12 09:36:37;;;;;;;16.85;10.20;;;;;;;23.49;51.58;99943.73;1751232;82;20983;-89
2022/09/12 09:39:12;;;;;;;19.32;8.98;;;;;;;23.48;51.69;99957.63;1751325;82;20947;-89
2022/09/12 09:42:09;;;;;;;16.10;9.15;;;;;;;23.44;51.66;99955.53;1751407;81;20968;-88
2022/09/12 09:44:37;;;;;;;16.32;9.08;;;;;;;23.42;52.03;99960.24;1751969;82;20964;-91
2022/09/12 09:47:04;;;;;;;15.30;9.85;;;;;;;23.38;52.01;99958.45;1752195;82;21374;-89
2022/09/12 09:49:35;;;;;;;13.10;8.15;;;;;;;23.37;52.27;99954.95;1751696;82;20984;-90
2022/09/12 09:52:02;;;;;;;15.10;7.53;;;;;;;23.38;52.53;99956.59;1751712;82;20928;-89
2022/09/12 09:54:53;;;;;;;12.98;7.70;;;;;;;23.40;52.24;99950.24;1731357;82;21003;-88
2022/09/12 09:57:37;;;;;;;14.85;7.22;;;;;;;23.42;52.62;99948.20;1753226;81;20945;-88
2022/09/12 10:00:25;;;;;;;11.70;7.75;;;;;;;23.46;52.27;99950.30;1752534;81;21256;-87
2022/09/12 10:03:12;;;;;;;9.10;7.00;;;;;;;23.48;51.90;99950.94;1753645;78;20944;-89
2022/09/12 10:05:51;;;;;;;13.50;7.92;;;;;;;23.62;51.80;99944.36;1753507;78;20893;-89
2022/09/12 10:08:22;;;;;;;13.15;7.80;;;;;;;23.94;51.45;99945.64;1786160;76;20943;-87
2022/09/12 10:11:04;;;;;;;12.50;7.08;;;;;;;24.26;50.53;99941.52;1839532;77;20871;-89
2022/09/12 10:13:55;;;;;;;11.28;7.65;;;;;;;24.46;50.06;99933.57;1811196;78;21316;-88
2022/09/12 10:16:29;;;;;;;11.97;6.37;;;;;;;24.56;49.60;99934.56;1839111;78;20902;-89
2022/09/12 10:18:59;;;;;;;10.23;7.28;;;;;;;24.75;49.49;99938.35;1814022;78;21036;-89
2022/09/12 10:21:42;;;;;;;8.13;6.12;;;;;;;24.86;48.52;99939.63;1839502;78;20958;-88
2022/09/12 10:24:30;;;;;;;20.55;17.30;;;;;;;24.88;48.26;99937.54;1838964;78;20969;-90
2022/09/12 10:27:19;;;;;;;9.95;6.90;;;;;;;24.86;48.21;99929.72;1816150;78;21764;-87
2022/09/12 10:30:05;;;;;;;8.18;6.20;;;;;;;24.84;48.08;99933.11;1840484;77;20989;-91
2022/09/12 10:32:44;;;;;;;10.20;6.62;;;;;;;24.73;48.58;99938.55;1840029;78;20973;-90
2022/09/12 10:35:21;;;;;;;13.70;9.33;;;;;;;24.67;48.87;99942.02;1813826;77;20950;-89
2022/09/12 10:38:06;;;;;;;14.28;8.95;;;;;;;24.62;49.13;99937.78;1840490;76;21036;-87
2022/09/12 10:40:39;;;;;;;13.60;9.80;;;;;;;24.64;49.45;99937.08;1840570;76;21166;-89
2022/09/12 10:43:21;;;;;;;11.63;8.98;;;;;;;24.69;49.77;99931.92;1840164;78;21502;-90
2022/09/12 10:45:49;;;;;;;18.13;12.27;;;;;;;24.75;49.61;99937.02;1836491;78;20922;-90
2022/09/12 10:48:31;;;;;;;14.23;9.63;;;;;;;24.70;49.64;99943.47;1814175;78;20884;-89
2022/09/12 10:50:58;;;;;;;18.92;14.50;;;;;;;24.64;49.72;99938.94;1839558;78;20938;-90
2022/09/12 10:53:32;;;;;;;11.48;8.30;;;;;;;24.55;49.66;99943.13;1840108;78;21130;-90
2022/09/12 10:56:09;;;;;;;14.47;10.18;;;;;;;24.44;49.17;99945.52;1835881;78;20839;-90
2022/09/12 10:59:27;;;;;;;16.30;9.38;;;;;;;24.16;49.54;99948.55;1817809;76;20832;-92
2022/09/12 11:02:29;;;;;;;10.13;8.85;;;;;;;23.91;50.36;99950.88;1823993;78;20883;-88
2022/09/12 11:05:20;;;;;;;16.20;9.73;;;;;;;23.69;51.11;99958.61;1823627;78;20902;-90
2022/09/12 11:08:15;;;;;;;17.02;12.90;;;;;;;23.45;51.33;99959.33;1824085;78;21073;-90
2022/09/12 11:11:01;;;;;;;;;;;;;;;23.30;52.01;99961.24;1827536;78;20900;-91
2022/09/12 11:13:58;;;;;;;104.15;92.75;;;;;;;23.13;52.51;99966.04;1823161;78;20094;-89
2022/09/12 11:16:47;;;;;;;19.10;13.95;;;;;;;22.97;53.38;99961.21;1823990;78;20907;-91
2022/09/12 11:20:10;;;;;;;20.88;15.40;;;;;;;22.91;54.04;99965.14;1824271;78;20844;-91
2022/09/12 11:23:03;;;;;;;19.35;11.00;;;;;;;22.90;53.92;99962.14;1824872;77;21178;-91
2022/09/12 11:25:38;;;;;;;20.35;13.60;;;;;;;22.87;53.72;99955.84;1823964;78;20939;-89
2022/09/12 11:29:58;;;;;;;18.57;11.68;;;;;;;22.79;54.58;99957.28;1800595;79;22617;-91
2022/09/12 11:33:08;;;;;;;12.47;9.33;;;;;;;22.68;54.88;99954.61;1758977;81;21301;-91
2022/09/12 11:35:49;;;;;;;11.85;9.73;;;;;;;22.67;55.01;99955.61;1759907;80;21163;-91
2022/09/12 11:38:40;;;;;;;13.45;9.33;;;;;;;22.60;54.53;99952.86;1698686;83;21373;-91
2022/09/12 11:41:21;;;;;;;17.60;10.80;;;;;;;22.51;54.85;99956.66;1725946;83;20935;-90
2022/09/12 11:44:00;;;;;;;15.78;9.30;;;;;;;22.42;54.83;99945.23;1696264;84;20950;-91
2022/09/12 11:46:32;;;;;;;18.70;9.83;;;;;;;22.29;54.89;99928.52;1713871;84;20980;-93
2022/09/12 11:49:15;;;;;;;19.03;9.53;;;;;;;22.22;55.21;99920.11;1731081;83;21187;-90
2022/09/12 11:51:57;;;;;;;16.93;9.90;;;;;;;22.14;55.52;99915.16;1731129;83;20939;-91
2022/09/12 11:54:59;;;;;;;13.10;9.43;;;;;;;22.17;56.22;99918.47;1730870;80;21444;-92
2022/09/12 11:57:41;;;;;;;13.98;9.65;;;;;;;22.23;56.10;99917.74;1728937;83;21007;-90
2022/09/12 12:00:22;;;;;;;12.80;8.98;;;;;;;22.27;56.14;99915.84;1730375;82;20971;-90
2022/09/12 12:03:28;;;;;;;13.83;8.90;;;;;;;22.35;55.98;99909.08;1730106;82;21421;-91
2022/09/12 12:06:21;;;;;;;10.78;8.35;;;;;;;22.39;55.77;99910.88;1729362;82;20963;-90